Kinsman, Ohio
Current Conditions -  °F | °C
As of 8:51 AM on Monday 24 Nov 2014 (Local Time) from KYNG Reporting Station
Overcast Overcast  
Wind Chill: 60°   Ceiling: 2100
Heat Index: 60°   Visibility: 10mi
Dew Point: 53°   Wind: 18mph
Humidity: 78%   Direction: 200°SSW
Pressure: 29.36"   Gusts: 29mph
Location:  41.44°N, 80.59°W
Report Text: KYNG 241351Z 20016G25KT 10SM BKN021 BKN065 OVC130 16/12 A2936 RMK AO2 PK WND 19029/1330 SLP940 BINOVC T01560117
Loading
Personal Weather Stations






























Interactive Weather Map New forecast layout! Learn more

10-Day Weather Forecast

Advertisements
Track Severe Weather on mobile